sensor_id;sensor_type;location;lat;lon;timestamp;temperature;humidity
5775;DHT22;2913;51.120;6.772;2022-09-29T00:01:37;9.90;99.90
5775;DHT22;2913;51.120;6.772;2022-09-29T00:04:06;9.90;99.90
5775;DHT22;2913;51.120;6.772;2022-09-29T00:06:31;9.80;99.90
5775;DHT22;2913;51.120;6.772;2022-09-29T00:08:57;9.80;99.90
5775;DHT22;2913;51.120;6.772;2022-09-29T00:11:23;9.80;99.90
5775;DHT22;2913;51.120;6.772;2022-09-29T00:13:48;9.80;99.90
5775;DHT22;2913;51.120;6.772;2022-09-29T00:16:14;9.70;99.90
5775;DHT22;2913;51.120;6.772;2022-09-29T00:18:42;9.70;99.90
5775;DHT22;2913;51.120;6.772;2022-09-29T00:21:11;9.70;99.90
5775;DHT22;2913;51.120;6.772;2022-09-29T00:23:38;9.70;99.90
5775;DHT22;2913;51.120;6.772;2022-09-29T00:26:13;9.70;99.90
5775;DHT22;2913;51.120;6.772;2022-09-29T00:28:49;9.60;99.90
5775;DHT22;2913;51.120;6.772;2022-09-29T00:31:17;9.60;99.90
5775;DHT22;2913;51.120;6.772;2022-09-29T00:33:43;9.50;99.90
5775;DHT22;2913;51.120;6.772;2022-09-29T00:36:11;9.40;99.90
5775;DHT22;2913;51.120;6.772;2022-09-29T00:38:38;9.40;99.90
5775;DHT22;2913;51.120;6.772;2022-09-29T00:41:04;9.30;99.90
5775;DHT22;2913;51.120;6.772;2022-09-29T00:49:00;9.20;99.90
5775;DHT22;2913;51.120;6.772;2022-09-29T00:51:28;9.10;99.90
5775;DHT22;2913;51.120;6.772;2022-09-29T00:53:58;9.10;99.90
5775;DHT22;2913;51.120;6.772;2022-09-29T00:56:24;9.10;99.90
5775;DHT22;2913;51.120;6.772;2022-09-29T00:58:57;9.10;99.90
5775;DHT22;2913;51.120;6.772;2022-09-29T01:01:26;9.00;99.90
5775;DHT22;2913;51.120;6.772;2022-09-29T01:03:59;9.00;99.90
5775;DHT22;2913;51.120;6.772;2022-09-29T01:06:43;9.00;99.90
5775;DHT22;2913;51.120;6.772;2022-09-29T01:09:14;9.00;99.90
5775;DHT22;2913;51.120;6.772;2022-09-29T01:11:40;9.00;99.90
5775;DHT22;2913;51.120;6.772;2022-09-29T01:14:10;8.90;99.90
5775;DHT22;2913;51.120;6.772;2022-09-29T01:16:37;8.90;99.90
5775;DHT22;2913;51.120;6.772;2022-09-29T01:19:18;8.90;99.90
5775;DHT22;2913;51.120;6.772;2022-09-29T01:22:20;8.80;99.90
5775;DHT22;2913;51.120;6.772;2022-09-29T01:25:03;8.70;99.90
5775;DHT22;2913;51.120;6.772;2022-09-29T01:34:00;8.70;99.90
5775;DHT22;2913;51.120;6.772;2022-09-29T01:39:31;8.60;99.90
5775;DHT22;2913;51.120;6.772;2022-09-29T01:44:42;8.60;99.90
5775;DHT22;2913;51.120;6.772;2022-09-29T01:47:17;8.50;99.90
5775;DHT22;2913;51.120;6.772;2022-09-29T01:49:49;8.50;99.90
5775;DHT22;2913;51.120;6.772;2022-09-29T01:52:19;8.40;99.90
5775;DHT22;2913;51.120;6.772;2022-09-29T01:55:01;8.40;99.90
5775;DHT22;2913;51.120;6.772;2022-09-29T01:57:28;8.40;99.90
5775;DHT22;2913;51.120;6.772;2022-09-29T02:02:40;8.30;99.90
5775;DHT22;2913;51.120;6.772;2022-09-29T02:05:19;8.30;99.90
5775;DHT22;2913;51.120;6.772;2022-09-29T02:07:46;8.20;99.90
5775;DHT22;2913;51.120;6.772;2022-09-29T02:10:36;8.20;99.90
5775;DHT22;2913;51.120;6.772;2022-09-29T02:13:09;8.20;99.90
5775;DHT22;2913;51.120;6.772;2022-09-29T02:15:38;8.20;99.90
5775;DHT22;2913;51.120;6.772;2022-09-29T02:18:15;8.20;99.90
5775;DHT22;2913;51.120;6.772;2022-09-29T02:20:45;8.20;99.90
5775;DHT22;2913;51.120;6.772;2022-09-29T02:23:11;8.20;99.90
5775;DHT22;2913;51.120;6.772;2022-09-29T02:25:39;8.20;99.90
5775;DHT22;2913;51.120;6.772;2022-09-29T02:28:06;8.20;99.90
5775;DHT22;2913;51.120;6.772;2022-09-29T02:30:32;8.20;99.90
5775;DHT22;2913;51.120;6.772;2022-09-29T02:33:00;8.10;99.90
5775;DHT22;2913;51.120;6.772;2022-09-29T02:35:36;8.10;99.90
5775;DHT22;2913;51.120;6.772;2022-09-29T02:38:10;8.10;99.90
5775;DHT22;2913;51.120;6.772;2022-09-29T02:40:52;8.10;99.90
5775;DHT22;2913;51.120;6.772;2022-09-29T02:51:52;8.00;99.90
5775;DHT22;2913;51.120;6.772;2022-09-29T02:55:06;7.90;99.90
5775;DHT22;2913;51.120;6.772;2022-09-29T03:00:14;7.90;99.90
5775;DHT22;2913;51.120;6.772;2022-09-29T03:02:42;7.80;99.90
5775;DHT22;2913;51.120;6.772;2022-09-29T03:05:16;7.80;99.90
5775;DHT22;2913;51.120;6.772;2022-09-29T03:07:45;7.80;99.90
5775;DHT22;2913;51.120;6.772;2022-09-29T03:10:12;7.80;99.90
5775;DHT22;2913;51.120;6.772;2022-09-29T03:12:38;7.70;99.90
5775;DHT22;2913;51.120;6.772;2022-09-29T03:15:04;7.70;99.90
5775;DHT22;2913;51.120;6.772;2022-09-29T03:17:31;7.60;99.90
5775;DHT22;2913;51.120;6.772;2022-09-29T03:19:57;7.60;99.90
5775;DHT22;2913;51.120;6.772;2022-09-29T03:22:23;7.60;99.90
5775;DHT22;2913;51.120;6.772;2022-09-29T03:24:48;7.60;99.90
5775;DHT22;2913;51.120;6.772;2022-09-29T03:27:19;7.60;99.90
5775;DHT22;2913;51.120;6.772;2022-09-29T03:29:44;7.60;99.90
5775;DHT22;2913;51.120;6.772;2022-09-29T03:32:10;7.60;99.90
5775;DHT22;2913;51.120;6.772;2022-09-29T03:34:36;7.70;99.90
5775;DHT22;2913;51.120;6.772;2022-09-29T03:37:01;7.70;99.90
5775;DHT22;2913;51.120;6.772;2022-09-29T03:39:30;7.70;99.90
5775;DHT22;2913;51.120;6.772;2022-09-29T03:41:58;7.80;99.90
5775;DHT22;2913;51.120;6.772;2022-09-29T03:44:23;7.80;99.90
5775;DHT22;2913;51.120;6.772;2022-09-29T03:46:49;7.80;99.90
5775;DHT22;2913;51.120;6.772;2022-09-29T03:49:14;7.80;99.90
5775;DHT22;2913;51.120;6.772;2022-09-29T03:51:41;7.80;99.90
5775;DHT22;2913;51.120;6.772;2022-09-29T03:54:07;7.80;99.90
5775;DHT22;2913;51.120;6.772;2022-09-29T03:56:33;7.80;99.90
5775;DHT22;2913;51.120;6.772;2022-09-29T03:59:01;7.80;99.90
5775;DHT22;2913;51.120;6.772;2022-09-29T04:01:30;7.80;99.90
5775;DHT22;2913;51.120;6.772;2022-09-29T04:03:58;7.70;99.90
5775;DHT22;2913;51.120;6.772;2022-09-29T04:06:23;7.70;99.90
5775;DHT22;2913;51.120;6.772;2022-09-29T04:08:49;7.70;99.90
5775;DHT22;2913;51.120;6.772;2022-09-29T04:11:17;7.70;99.90
5775;DHT22;2913;51.120;6.772;2022-09-29T04:13:42;7.70;99.90
5775;DHT22;2913;51.120;6.772;2022-09-29T04:16:08;7.70;99.90
5775;DHT22;2913;51.120;6.772;2022-09-29T04:18:34;7.70;99.90
5775;DHT22;2913;51.120;6.772;2022-09-29T04:21:05;7.70;99.90
5775;DHT22;2913;51.120;6.772;2022-09-29T04:23:33;7.70;99.90
5775;DHT22;2913;51.120;6.772;2022-09-29T04:26:07;7.70;99.90
5775;DHT22;2913;51.120;6.772;2022-09-29T04:28:34;7.70;99.90
5775;DHT22;2913;51.120;6.772;2022-09-29T04:31:01;7.80;99.90
5775;DHT22;2913;51.120;6.772;2022-09-29T04:33:27;7.80;99.90
5775;DHT22;2913;51.120;6.772;2022-09-29T04:35:54;7.70;99.90
5775;DHT22;2913;51.120;6.772;2022-09-29T04:38:22;7.70;99.90
5775;DHT22;2913;51.120;6.772;2022-09-29T04:40:48;7.60;99.90
5775;DHT22;2913;51.120;6.772;2022-09-29T04:43:14;7.60;99.90
5775;DHT22;2913;51.120;6.772;2022-09-29T04:45:40;7.50;99.90
5775;DHT22;2913;51.120;6.772;2022-09-29T04:48:05;7.60;99.90
5775;DHT22;2913;51.120;6.772;2022-09-29T04:50:34;7.60;99.90
5775;DHT22;2913;51.120;6.772;2022-09-29T04:52:59;7.60;99.90
5775;DHT22;2913;51.120;6.772;2022-09-29T04:55:27;7.60;99.90
5775;DHT22;2913;51.120;6.772;2022-09-29T04:57:53;7.60;99.90
5775;DHT22;2913;51.120;6.772;2022-09-29T05:00:18;7.60;99.90
5775;DHT22;2913;51.120;6.772;2022-09-29T05:02:44;7.60;99.90
5775;DHT22;2913;51.120;6.772;2022-09-29T05:05:10;7.60;99.90
5775;DHT22;2913;51.120;6.772;2022-09-29T05:07:38;7.50;99.90
5775;DHT22;2913;51.120;6.772;2022-09-29T05:10:09;7.50;99.90
5775;DHT22;2913;51.120;6.772;2022-09-29T05:12:35;7.60;99.90
5775;DHT22;2913;51.120;6.772;2022-09-29T05:15:04;7.50;99.90
5775;DHT22;2913;51.120;6.772;2022-09-29T05:17:33;7.40;99.90
5775;DHT22;2913;51.120;6.772;2022-09-29T05:20:00;7.50;99.90
5775;DHT22;2913;51.120;6.772;2022-09-29T05:22:26;7.50;99.90
5775;DHT22;2913;51.120;6.772;2022-09-29T05:24:52;7.50;99.90
5775;DHT22;2913;51.120;6.772;2022-09-29T05:27:18;7.40;99.90
5775;DHT22;2913;51.120;6.772;2022-09-29T05:29:44;7.40;99.90
5775;DHT22;2913;51.120;6.772;2022-09-29T05:32:10;7.40;99.90
5775;DHT22;2913;51.120;6.772;2022-09-29T05:34:36;7.40;99.90
5775;DHT22;2913;51.120;6.772;2022-09-29T05:37:06;7.40;99.90
5775;DHT22;2913;51.120;6.772;2022-09-29T05:39:34;7.40;99.90
5775;DHT22;2913;51.120;6.772;2022-09-29T05:42:02;7.40;99.90
5775;DHT22;2913;51.120;6.772;2022-09-29T05:44:28;7.50;99.90
5775;DHT22;2913;51.120;6.772;2022-09-29T05:46:56;7.50;99.90
5775;DHT22;2913;51.120;6.772;2022-09-29T05:49:24;7.50;99.90
5775;DHT22;2913;51.120;6.772;2022-09-29T05:51:49;7.50;99.90
5775;DHT22;2913;51.120;6.772;2022-09-29T05:54:15;7.50;99.90
5775;DHT22;2913;51.120;6.772;2022-09-29T05:56:43;7.40;99.90
5775;DHT22;2913;51.120;6.772;2022-09-29T05:59:09;7.40;99.90
5775;DHT22;2913;51.120;6.772;2022-09-29T06:01:34;7.40;99.90
5775;DHT22;2913;51.120;6.772;2022-09-29T06:04:00;7.50;99.90
5775;DHT22;2913;51.120;6.772;2022-09-29T06:06:31;7.50;99.90
5775;DHT22;2913;51.120;6.772;2022-09-29T06:08:59;7.50;99.90
5775;DHT22;2913;51.120;6.772;2022-09-29T06:11:29;7.60;99.90
5775;DHT22;2913;51.120;6.772;2022-09-29T06:14:00;7.60;99.90
5775;DHT22;2913;51.120;6.772;2022-09-29T06:16:28;7.60;99.90
5775;DHT22;2913;51.120;6.772;2022-09-29T06:18:54;7.60;99.90
5775;DHT22;2913;51.120;6.772;2022-09-29T06:21:23;7.70;99.90
5775;DHT22;2913;51.120;6.772;2022-09-29T06:23:55;7.80;99.90
5775;DHT22;2913;51.120;6.772;2022-09-29T06:26:22;7.80;99.90
5775;DHT22;2913;51.120;6.772;2022-09-29T06:28:48;7.90;99.90
5775;DHT22;2913;51.120;6.772;2022-09-29T06:31:16;8.00;99.90
5775;DHT22;2913;51.120;6.772;2022-09-29T06:33:42;8.30;99.90
5775;DHT22;2913;51.120;6.772;2022-09-29T06:39:09;8.50;99.90
5775;DHT22;2913;51.120;6.772;2022-09-29T06:41:35;8.70;99.90
5775;DHT22;2913;51.120;6.772;2022-09-29T06:44:01;8.80;99.90
5775;DHT22;2913;51.120;6.772;2022-09-29T06:46:27;9.00;99.90
5775;DHT22;2913;51.120;6.772;2022-09-29T06:48:54;9.00;99.90
5775;DHT22;2913;51.120;6.772;2022-09-29T06:51:20;9.20;99.90
5775;DHT22;2913;51.120;6.772;2022-09-29T06:53:51;9.30;99.90
5775;DHT22;2913;51.120;6.772;2022-09-29T06:56:18;9.40;99.90
5775;DHT22;2913;51.120;6.772;2022-09-29T06:58:44;9.40;99.90
5775;DHT22;2913;51.120;6.772;2022-09-29T07:01:10;9.40;99.90
5775;DHT22;2913;51.120;6.772;2022-09-29T07:03:37;9.70;99.90
5775;DHT22;2913;51.120;6.772;2022-09-29T07:06:04;9.60;99.90
5775;DHT22;2913;51.120;6.772;2022-09-29T07:08:33;9.70;99.90
5775;DHT22;2913;51.120;6.772;2022-09-29T07:11:01;10.00;99.90
5775;DHT22;2913;51.120;6.772;2022-09-29T07:13:28;10.10;99.90
5775;DHT22;2913;51.120;6.772;2022-09-29T07:15:53;10.20;99.90
5775;DHT22;2913;51.120;6.772;2022-09-29T07:18:19;10.30;99.90
5775;DHT22;2913;51.120;6.772;2022-09-29T07:20:47;10.40;99.90
5775;DHT22;2913;51.120;6.772;2022-09-29T07:23:13;10.60;99.90
5775;DHT22;2913;51.120;6.772;2022-09-29T07:25:41;10.50;99.90
5775;DHT22;2913;51.120;6.772;2022-09-29T07:28:06;10.60;99.90
5775;DHT22;2913;51.120;6.772;2022-09-29T07:30:32;10.80;99.90
5775;DHT22;2913;51.120;6.772;2022-09-29T07:33:04;10.90;99.90
5775;DHT22;2913;51.120;6.772;2022-09-29T07:35:29;11.00;99.90
5775;DHT22;2913;51.120;6.772;2022-09-29T07:37:55;11.10;99.90
5775;DHT22;2913;51.120;6.772;2022-09-29T07:40:25;11.20;99.90
5775;DHT22;2913;51.120;6.772;2022-09-29T07:42:54;11.30;99.90
5775;DHT22;2913;51.120;6.772;2022-09-29T07:45:22;11.10;99.90
5775;DHT22;2913;51.120;6.772;2022-09-29T07:47:47;11.30;99.90
5775;DHT22;2913;51.120;6.772;2022-09-29T07:50:13;11.30;99.90
5775;DHT22;2913;51.120;6.772;2022-09-29T07:52:39;11.30;99.90
5775;DHT22;2913;51.120;6.772;2022-09-29T07:55:05;11.40;99.90
5775;DHT22;2913;51.120;6.772;2022-09-29T07:57:31;11.50;99.90
5775;DHT22;2913;51.120;6.772;2022-09-29T08:00:02;11.40;99.90
5775;DHT22;2913;51.120;6.772;2022-09-29T08:02:28;11.60;99.90
5775;DHT22;2913;51.120;6.772;2022-09-29T08:04:55;11.60;99.90
5775;DHT22;2913;51.120;6.772;2022-09-29T08:07:21;11.70;99.90
5775;DHT22;2913;51.120;6.772;2022-09-29T08:09:46;11.70;99.90
5775;DHT22;2913;51.120;6.772;2022-09-29T08:12:15;11.70;99.90
5775;DHT22;2913;51.120;6.772;2022-09-29T08:14:43;11.80;99.90
5775;DHT22;2913;51.120;6.772;2022-09-29T08:17:09;11.70;99.90
5775;DHT22;2913;51.120;6.772;2022-09-29T08:19:34;11.80;99.90
5775;DHT22;2913;51.120;6.772;2022-09-29T08:22:00;11.90;99.90
5775;DHT22;2913;51.120;6.772;2022-09-29T08:24:25;11.70;99.90
5775;DHT22;2913;51.120;6.772;2022-09-29T08:26:52;11.70;99.90
5775;DHT22;2913;51.120;6.772;2022-09-29T08:29:22;11.70;99.90
5775;DHT22;2913;51.120;6.772;2022-09-29T08:31:47;11.60;99.90
5775;DHT22;2913;51.120;6.772;2022-09-29T08:34:13;11.60;99.90
5775;DHT22;2913;51.120;6.772;2022-09-29T08:36:39;11.50;99.90
5775;DHT22;2913;51.120;6.772;2022-09-29T08:39:05;11.40;99.90
5775;DHT22;2913;51.120;6.772;2022-09-29T08:46:55;11.30;99.90
5775;DHT22;2913;51.120;6.772;2022-09-29T08:49:26;11.40;99.90
5775;DHT22;2913;51.120;6.772;2022-09-29T08:51:57;11.50;99.90
5775;DHT22;2913;51.120;6.772;2022-09-29T08:54:42;11.70;99.90
5775;DHT22;2913;51.120;6.772;2022-09-29T08:57:13;11.70;99.90
5775;DHT22;2913;51.120;6.772;2022-09-29T08:59:42;12.00;99.90
5775;DHT22;2913;51.120;6.772;2022-09-29T09:05:12;11.90;99.90
5775;DHT22;2913;51.120;6.772;2022-09-29T09:10:48;12.20;99.90
5775;DHT22;2913;51.120;6.772;2022-09-29T09:13:23;12.30;99.90
5775;DHT22;2913;51.120;6.772;2022-09-29T09:16:12;12.20;99.90
5775;DHT22;2913;51.120;6.772;2022-09-29T09:21:40;12.20;99.90
5775;DHT22;2913;51.120;6.772;2022-09-29T09:26:41;12.20;99.90
5775;DHT22;2913;51.120;6.772;2022-09-29T09:31:45;12.70;99.90
5775;DHT22;2913;51.120;6.772;2022-09-29T09:34:25;12.90;99.90
5775;DHT22;2913;51.120;6.772;2022-09-29T09:37:21;13.00;99.90
5775;DHT22;2913;51.120;6.772;2022-09-29T09:42:24;13.20;99.90
5775;DHT22;2913;51.120;6.772;2022-09-29T09:45:02;13.20;99.90
5775;DHT22;2913;51.120;6.772;2022-09-29T09:52:46;13.70;99.90
5775;DHT22;2913;51.120;6.772;2022-09-29T09:55:21;13.80;99.90
5775;DHT22;2913;51.120;6.772;2022-09-29T10:00:46;13.90;99.90
5775;DHT22;2913;51.120;6.772;2022-09-29T10:03:14;13.90;99.90
5775;DHT22;2913;51.120;6.772;2022-09-29T10:05:42;13.70;99.90
5775;DHT22;2913;51.120;6.772;2022-09-29T10:08:29;13.90;99.90
5775;DHT22;2913;51.120;6.772;2022-09-29T10:13:45;13.80;99.90
5775;DHT22;2913;51.120;6.772;2022-09-29T10:16:15;13.90;99.90
5775;DHT22;2913;51.120;6.772;2022-09-29T10:18:43;14.10;99.90
5775;DHT22;2913;51.120;6.772;2022-09-29T10:23:57;14.40;99.90
5775;DHT22;2913;51.120;6.772;2022-09-29T10:26:28;14.50;99.90
5775;DHT22;2913;51.120;6.772;2022-09-29T10:28:58;14.50;99.90
5775;DHT22;2913;51.120;6.772;2022-09-29T10:31:31;14.60;99.90
5775;DHT22;2913;51.120;6.772;2022-09-29T10:36:55;14.70;99.90
5775;DHT22;2913;51.120;6.772;2022-09-29T10:39:42;14.90;99.90
5775;DHT22;2913;51.120;6.772;2022-09-29T10:42:44;15.00;99.90
5775;DHT22;2913;51.120;6.772;2022-09-29T10:52:53;15.30;99.90
5775;DHT22;2913;51.120;6.772;2022-09-29T10:55:30;15.50;99.90
5775;DHT22;2913;51.120;6.772;2022-09-29T11:00:46;15.50;99.90
5775;DHT22;2913;51.120;6.772;2022-09-29T11:03:21;15.70;99.90
5775;DHT22;2913;51.120;6.772;2022-09-29T11:05:57;15.80;99.90
5775;DHT22;2913;51.120;6.772;2022-09-29T11:08:26;15.80;99.90
5775;DHT22;2913;51.120;6.772;2022-09-29T11:11:05;15.90;99.90
5775;DHT22;2913;51.120;6.772;2022-09-29T11:13:33;15.90;99.90
5775;DHT22;2913;51.120;6.772;2022-09-29T11:16:10;16.00;99.90
5775;DHT22;2913;51.120;6.772;2022-09-29T11:18:38;16.00;99.90
5775;DHT22;2913;51.120;6.772;2022-09-29T11:26:58;16.10;99.90
5775;DHT22;2913;51.120;6.772;2022-09-29T11:32:23;15.90;99.90
5775;DHT22;2913;51.120;6.772;2022-09-29T11:35:02;15.80;99.90
5775;DHT22;2913;51.120;6.772;2022-09-29T11:37:49;15.80;99.90
5775;DHT22;2913;51.120;6.772;2022-09-29T11:43:50;15.80;99.90
5775;DHT22;2913;51.120;6.772;2022-09-29T12:00:10;15.50;99.90
5775;DHT22;2913;51.120;6.772;2022-09-29T12:05:53;15.60;99.90
5775;DHT22;2913;51.120;6.772;2022-09-29T12:08:39;15.80;99.90
5775;DHT22;2913;51.120;6.772;2022-09-29T12:11:38;16.00;99.90
5775;DHT22;2913;51.120;6.772;2022-09-29T12:14:16;16.00;99.90
5775;DHT22;2913;51.120;6.772;2022-09-29T12:16:51;16.10;99.90
5775;DHT22;2913;51.120;6.772;2022-09-29T12:19:23;16.00;99.90
5775;DHT22;2913;51.120;6.772;2022-09-29T12:21:55;16.00;99.90
5775;DHT22;2913;51.120;6.772;2022-09-29T12:27:01;15.90;99.90
5775;DHT22;2913;51.120;6.772;2022-09-29T12:29:47;15.90;99.90
5775;DHT22;2913;51.120;6.772;2022-09-29T12:32:25;16.10;99.90
5775;DHT22;2913;51.120;6.772;2022-09-29T12:35:10;16.20;99.90
5775;DHT22;2913;51.120;6.772;2022-09-29T12:40:29;16.40;99.90
5775;DHT22;2913;51.120;6.772;2022-09-29T12:43:09;16.50;99.90
5775;DHT22;2913;51.120;6.772;2022-09-29T12:48:37;16.50;99.90
5775;DHT22;2913;51.120;6.772;2022-09-29T12:53:51;16.60;99.90
5775;DHT22;2913;51.120;6.772;2022-09-29T12:56:25;16.50;99.90
5775;DHT22;2913;51.120;6.772;2022-09-29T13:01:37;16.30;99.90
5775;DHT22;2913;51.120;6.772;2022-09-29T13:07:16;16.30;99.90
5775;DHT22;2913;51.120;6.772;2022-09-29T13:27:25;16.30;99.90
5775;DHT22;2913;51.120;6.772;2022-09-29T13:32:44;16.40;99.90
5775;DHT22;2913;51.120;6.772;2022-09-29T13:35:17;16.70;99.90
5775;DHT22;2913;51.120;6.772;2022-09-29T13:37:51;16.70;99.70
5775;DHT22;2913;51.120;6.772;2022-09-29T13:40:28;16.80;97.40
5775;DHT22;2913;51.120;6.772;2022-09-29T13:42:58;16.70;96.60
5775;DHT22;2913;51.120;6.772;2022-09-29T13:47:54;16.70;99.90
5775;DHT22;2913;51.120;6.772;2022-09-29T13:55:54;16.70;99.90
5775;DHT22;2913;51.120;6.772;2022-09-29T13:58:34;16.60;99.60
5775;DHT22;2913;51.120;6.772;2022-09-29T14:01:03;16.60;98.70
5775;DHT22;2913;51.120;6.772;2022-09-29T14:03:40;16.50;97.10
5775;DHT22;2913;51.120;6.772;2022-09-29T14:06:19;16.40;95.40
5775;DHT22;2913;51.120;6.772;2022-09-29T14:09:11;16.50;98.60
5775;DHT22;2913;51.120;6.772;2022-09-29T14:11:52;16.60;99.90
5775;DHT22;2913;51.120;6.772;2022-09-29T14:22:02;16.70;99.90
5775;DHT22;2913;51.120;6.772;2022-09-29T14:30:32;16.70;99.90
5775;DHT22;2913;51.120;6.772;2022-09-29T14:33:08;16.70;99.90
5775;DHT22;2913;51.120;6.772;2022-09-29T14:35:40;16.70;99.90
5775;DHT22;2913;51.120;6.772;2022-09-29T14:38:18;16.70;99.90
5775;DHT22;2913;51.120;6.772;2022-09-29T15:00:47;16.60;99.90
5775;DHT22;2913;51.120;6.772;2022-09-29T15:03:23;16.60;99.90
5775;DHT22;2913;51.120;6.772;2022-09-29T15:06:12;16.70;99.90
5775;DHT22;2913;51.120;6.772;2022-09-29T15:08:39;16.60;99.90
5775;DHT22;2913;51.120;6.772;2022-09-29T15:13:55;16.70;99.90
5775;DHT22;2913;51.120;6.772;2022-09-29T15:16:46;16.60;99.90
5775;DHT22;2913;51.120;6.772;2022-09-29T15:19:30;16.60;99.90
5775;DHT22;2913;51.120;6.772;2022-09-29T15:22:04;16.50;99.90
5775;DHT22;2913;51.120;6.772;2022-09-29T15:27:22;16.30;99.60
5775;DHT22;2913;51.120;6.772;2022-09-29T15:29:52;16.30;99.10
5775;DHT22;2913;51.120;6.772;2022-09-29T15:32:24;16.20;99.00
5775;DHT22;2913;51.120;6.772;2022-09-29T15:34:51;16.30;98.40
5775;DHT22;2913;51.120;6.772;2022-09-29T15:37:20;16.30;98.50
5775;DHT22;2913;51.120;6.772;2022-09-29T15:39:51;16.40;99.90
5775;DHT22;2913;51.120;6.772;2022-09-29T15:42:21;16.30;99.90
5775;DHT22;2913;51.120;6.772;2022-09-29T15:45:01;16.30;99.90
5775;DHT22;2913;51.120;6.772;2022-09-29T15:47:39;16.30;99.90
5775;DHT22;2913;51.120;6.772;2022-09-29T15:50:24;16.30;99.90
5775;DHT22;2913;51.120;6.772;2022-09-29T15:52:53;16.30;99.90
5775;DHT22;2913;51.120;6.772;2022-09-29T15:55:24;16.20;99.90
5775;DHT22;2913;51.120;6.772;2022-09-29T15:57:52;16.30;96.70
5775;DHT22;2913;51.120;6.772;2022-09-29T16:05:30;16.20;99.90
5775;DHT22;2913;51.120;6.772;2022-09-29T16:08:05;16.20;99.90
5775;DHT22;2913;51.120;6.772;2022-09-29T16:10:38;16.20;99.90
5775;DHT22;2913;51.120;6.772;2022-09-29T16:13:12;16.10;99.90
5775;DHT22;2913;51.120;6.772;2022-09-29T16:15:49;16.10;99.90
5775;DHT22;2913;51.120;6.772;2022-09-29T16:18:40;16.10;99.90
5775;DHT22;2913;51.120;6.772;2022-09-29T16:21:18;16.00;99.90
5775;DHT22;2913;51.120;6.772;2022-09-29T16:26:50;15.90;99.90
5775;DHT22;2913;51.120;6.772;2022-09-29T16:31:51;15.80;99.90
5775;DHT22;2913;51.120;6.772;2022-09-29T16:37:05;15.70;99.90
5775;DHT22;2913;51.120;6.772;2022-09-29T16:39:32;15.70;99.90
5775;DHT22;2913;51.120;6.772;2022-09-29T16:42:03;15.70;99.90
5775;DHT22;2913;51.120;6.772;2022-09-29T16:44:39;15.60;99.90
5775;DHT22;2913;51.120;6.772;2022-09-29T16:47:20;15.60;99.90
5775;DHT22;2913;51.120;6.772;2022-09-29T16:52:26;15.40;99.90
5775;DHT22;2913;51.120;6.772;2022-09-29T16:55:17;15.30;99.90
5775;DHT22;2913;51.120;6.772;2022-09-29T16:58:01;15.30;99.90
5775;DHT22;2913;51.120;6.772;2022-09-29T17:00:27;15.20;99.90
5775;DHT22;2913;51.120;6.772;2022-09-29T17:02:54;15.10;99.90
5775;DHT22;2913;51.120;6.772;2022-09-29T17:05:23;15.00;99.90
5775;DHT22;2913;51.120;6.772;2022-09-29T17:07:49;15.00;99.90
5775;DHT22;2913;51.120;6.772;2022-09-29T17:10:17;14.90;99.90
5775;DHT22;2913;51.120;6.772;2022-09-29T17:12:46;14.90;99.90
5775;DHT22;2913;51.120;6.772;2022-09-29T17:15:15;14.80;99.90
5775;DHT22;2913;51.120;6.772;2022-09-29T17:17:46;14.70;99.90
5775;DHT22;2913;51.120;6.772;2022-09-29T17:20:15;14.60;99.90
5775;DHT22;2913;51.120;6.772;2022-09-29T17:22:42;14.60;99.90
5775;DHT22;2913;51.120;6.772;2022-09-29T17:25:12;14.60;99.90
5775;DHT22;2913;51.120;6.772;2022-09-29T17:27:38;14.50;99.90
5775;DHT22;2913;51.120;6.772;2022-09-29T17:30:24;14.40;99.90
5775;DHT22;2913;51.120;6.772;2022-09-29T17:32:56;14.30;99.90
5775;DHT22;2913;51.120;6.772;2022-09-29T17:35:27;14.20;99.90
5775;DHT22;2913;51.120;6.772;2022-09-29T17:37:56;14.10;99.90
5775;DHT22;2913;51.120;6.772;2022-09-29T17:40:33;14.00;99.90
5775;DHT22;2913;51.120;6.772;2022-09-29T17:43:00;13.90;99.90
5775;DHT22;2913;51.120;6.772;2022-09-29T17:45:29;13.80;99.90
5775;DHT22;2913;51.120;6.772;2022-09-29T17:48:01;13.70;99.90
5775;DHT22;2913;51.120;6.772;2022-09-29T17:50:30;13.60;99.90
5775;DHT22;2913;51.120;6.772;2022-09-29T17:52:58;13.50;99.90
5775;DHT22;2913;51.120;6.772;2022-09-29T17:55:25;13.40;99.90
5775;DHT22;2913;51.120;6.772;2022-09-29T17:57:51;13.30;99.90
5775;DHT22;2913;51.120;6.772;2022-09-29T18:00:35;13.20;99.90
5775;DHT22;2913;51.120;6.772;2022-09-29T18:03:05;13.20;99.90
5775;DHT22;2913;51.120;6.772;2022-09-29T18:05:34;13.10;99.90
5775;DHT22;2913;51.120;6.772;2022-09-29T18:08:01;13.10;99.90
5775;DHT22;2913;51.120;6.772;2022-09-29T18:13:13;12.90;99.90
5775;DHT22;2913;51.120;6.772;2022-09-29T18:15:42;12.80;99.90
5775;DHT22;2913;51.120;6.772;2022-09-29T18:18:13;12.80;99.90
5775;DHT22;2913;51.120;6.772;2022-09-29T18:20:45;12.70;99.90
5775;DHT22;2913;51.120;6.772;2022-09-29T18:23:14;12.70;99.90
5775;DHT22;2913;51.120;6.772;2022-09-29T18:25:42;12.60;99.90
5775;DHT22;2913;51.120;6.772;2022-09-29T18:28:10;12.50;99.90
5775;DHT22;2913;51.120;6.772;2022-09-29T18:30:37;12.40;99.90
5775;DHT22;2913;51.120;6.772;2022-09-29T18:33:12;12.40;99.90
5775;DHT22;2913;51.120;6.772;2022-09-29T18:35:39;12.40;99.90
5775;DHT22;2913;51.120;6.772;2022-09-29T18:38:09;12.30;99.90
5775;DHT22;2913;51.120;6.772;2022-09-29T18:40:38;12.30;99.90
5775;DHT22;2913;51.120;6.772;2022-09-29T18:43:04;12.20;99.90
5775;DHT22;2913;51.120;6.772;2022-09-29T18:45:34;12.20;99.90
5775;DHT22;2913;51.120;6.772;2022-09-29T18:48:02;12.10;99.90
5775;DHT22;2913;51.120;6.772;2022-09-29T18:50:33;12.10;99.90
5775;DHT22;2913;51.120;6.772;2022-09-29T18:53:01;12.10;99.90
5775;DHT22;2913;51.120;6.772;2022-09-29T18:55:28;12.00;99.90
5775;DHT22;2913;51.120;6.772;2022-09-29T18:57:56;12.10;99.90
5775;DHT22;2913;51.120;6.772;2022-09-29T19:00:25;12.00;99.90
5775;DHT22;2913;51.120;6.772;2022-09-29T19:02:53;12.00;99.90
5775;DHT22;2913;51.120;6.772;2022-09-29T19:05:22;11.90;99.90
5775;DHT22;2913;51.120;6.772;2022-09-29T19:07:52;11.90;99.90
5775;DHT22;2913;51.120;6.772;2022-09-29T19:10:19;11.90;99.90
5775;DHT22;2913;51.120;6.772;2022-09-29T19:12:45;11.90;99.90
5775;DHT22;2913;51.120;6.772;2022-09-29T19:15:17;11.90;99.90
5775;DHT22;2913;51.120;6.772;2022-09-29T19:17:43;11.80;99.90
5775;DHT22;2913;51.120;6.772;2022-09-29T19:20:12;11.70;99.90
5775;DHT22;2913;51.120;6.772;2022-09-29T19:22:38;11.60;99.90
5775;DHT22;2913;51.120;6.772;2022-09-29T19:25:10;11.50;99.90
5775;DHT22;2913;51.120;6.772;2022-09-29T19:27:37;11.40;99.90
5775;DHT22;2913;51.120;6.772;2022-09-29T19:30:04;11.30;99.90
5775;DHT22;2913;51.120;6.772;2022-09-29T19:32:30;11.20;99.90
5775;DHT22;2913;51.120;6.772;2022-09-29T19:34:56;11.20;99.90
5775;DHT22;2913;51.120;6.772;2022-09-29T19:37:22;11.10;99.90
5775;DHT22;2913;51.120;6.772;2022-09-29T19:39:49;11.10;99.90
5775;DHT22;2913;51.120;6.772;2022-09-29T19:42:14;11.00;99.90
5775;DHT22;2913;51.120;6.772;2022-09-29T19:44:43;11.00;99.90
5775;DHT22;2913;51.120;6.772;2022-09-29T19:47:08;10.90;99.90
5775;DHT22;2913;51.120;6.772;2022-09-29T19:49:35;10.90;99.90
5775;DHT22;2913;51.120;6.772;2022-09-29T19:52:02;10.90;99.90
5775;DHT22;2913;51.120;6.772;2022-09-29T19:54:32;10.90;99.90
5775;DHT22;2913;51.120;6.772;2022-09-29T19:57:07;10.80;99.90
5775;DHT22;2913;51.120;6.772;2022-09-29T19:59:35;10.80;99.90
5775;DHT22;2913;51.120;6.772;2022-09-29T20:02:06;10.80;99.90
5775;DHT22;2913;51.120;6.772;2022-09-29T20:04:34;10.80;99.90